sensor_id;sensor_type;location;lat;lon;timestamp;temperature;humidity
60242;SHT30;46103;52.076;113.488;2023-06-14T00:00:41;16.26;60.38
60242;SHT30;46103;52.076;113.488;2023-06-14T00:03:47;16.28;60.27
60242;SHT30;46103;52.076;113.488;2023-06-14T00:06:55;16.53;59.76
60242;SHT30;46103;52.076;113.488;2023-06-14T00:14:37;17.02;58.33
60242;SHT30;46103;52.076;113.488;2023-06-14T00:17:41;17.15;57.89
60242;SHT30;46103;52.076;113.488;2023-06-14T00:20:46;17.35;57.45
60242;SHT30;46103;52.076;113.488;2023-06-14T00:36:22;17.69;55.68
60242;SHT30;46103;52.076;113.488;2023-06-14T00:40:38;17.50;56.36
60242;SHT30;46103;52.076;113.488;2023-06-14T00:44:06;17.51;56.51
60242;SHT30;46103;52.076;113.488;2023-06-14T00:47:41;17.49;56.42
60242;SHT30;46103;52.076;113.488;2023-06-14T00:51:13;17.39;56.55
60242;SHT30;46103;52.076;113.488;2023-06-14T00:54:41;17.33;56.55
60242;SHT30;46103;52.076;113.488;2023-06-14T00:57:45;17.35;56.75
60242;SHT30;46103;52.076;113.488;2023-06-14T01:00:51;17.38;56.56
60242;SHT30;46103;52.076;113.488;2023-06-14T01:04:17;17.59;55.92
60242;SHT30;46103;52.076;113.488;2023-06-14T01:08:27;17.66;55.60
60242;SHT30;46103;52.076;113.488;2023-06-14T01:11:38;17.91;54.82
60242;SHT30;46103;52.076;113.488;2023-06-14T01:14:48;18.14;54.77
60242;SHT30;46103;52.076;113.488;2023-06-14T01:17:53;18.41;53.90
60242;SHT30;46103;52.076;113.488;2023-06-14T01:21:21;18.57;53.16
60242;SHT30;46103;52.076;113.488;2023-06-14T01:24:25;18.42;53.54
60242;SHT30;46103;52.076;113.488;2023-06-14T01:27:32;18.57;53.33
60242;SHT30;46103;52.076;113.488;2023-06-14T01:30:41;18.99;52.43
60242;SHT30;46103;52.076;113.488;2023-06-14T01:33:51;19.39;51.35
60242;SHT30;46103;52.076;113.488;2023-06-14T01:36:55;19.77;50.54
60242;SHT30;46103;52.076;113.488;2023-06-14T01:40:00;19.90;50.20
60242;SHT30;46103;52.076;113.488;2023-06-14T01:43:05;20.31;49.16
60242;SHT30;46103;52.076;113.488;2023-06-14T01:46:11;20.72;48.21
60242;SHT30;46103;52.076;113.488;2023-06-14T01:49:16;21.10;47.13
60242;SHT30;46103;52.076;113.488;2023-06-14T01:52:21;21.20;46.66
60242;SHT30;46103;52.076;113.488;2023-06-14T01:55:27;20.96;46.59
60242;SHT30;46103;52.076;113.488;2023-06-14T01:58:32;21.00;46.86
60242;SHT30;46103;52.076;113.488;2023-06-14T02:01:36;21.33;46.07
60242;SHT30;46103;52.076;113.488;2023-06-14T02:04:41;21.50;45.21
60242;SHT30;46103;52.076;113.488;2023-06-14T02:07:49;21.33;45.22
60242;SHT30;46103;52.076;113.488;2023-06-14T02:11:05;21.23;45.11
60242;SHT30;46103;52.076;113.488;2023-06-14T02:14:36;20.78;45.98
60242;SHT30;46103;52.076;113.488;2023-06-14T02:17:42;20.79;45.94
60242;SHT30;46103;52.076;113.488;2023-06-14T02:20:46;20.85;45.57
60242;SHT30;46103;52.076;113.488;2023-06-14T02:23:53;20.78;45.57
60242;SHT30;46103;52.076;113.488;2023-06-14T02:26:59;20.78;45.86
60242;SHT30;46103;52.076;113.488;2023-06-14T02:30:05;21.37;44.93
60242;SHT30;46103;52.076;113.488;2023-06-14T02:33:08;21.50;44.19
60242;SHT30;46103;52.076;113.488;2023-06-14T02:36:16;21.08;45.19
60242;SHT30;46103;52.076;113.488;2023-06-14T02:39:20;21.33;44.93
60242;SHT30;46103;52.076;113.488;2023-06-14T02:42:24;21.31;44.70
60242;SHT30;46103;52.076;113.488;2023-06-14T02:45:28;21.31;44.68
60242;SHT30;46103;52.076;113.488;2023-06-14T02:48:31;21.58;43.82
60242;SHT30;46103;52.076;113.488;2023-06-14T02:51:35;21.59;43.53
60242;SHT30;46103;52.076;113.488;2023-06-14T02:54:39;21.85;42.71
60242;SHT30;46103;52.076;113.488;2023-06-14T02:57:44;21.93;42.51
60242;SHT30;46103;52.076;113.488;2023-06-14T03:00:51;22.17;41.45
60242;SHT30;46103;52.076;113.488;2023-06-14T03:03:56;22.44;40.07
60242;SHT30;46103;52.076;113.488;2023-06-14T03:07:01;22.78;39.82
60242;SHT30;46103;52.076;113.488;2023-06-14T03:10:08;22.99;39.17
60242;SHT30;46103;52.076;113.488;2023-06-14T03:13:18;23.26;38.49
60242;SHT30;46103;52.076;113.488;2023-06-14T03:16:26;23.63;37.68
60242;SHT30;46103;52.076;113.488;2023-06-14T03:19:33;23.74;37.01
60242;SHT30;46103;52.076;113.488;2023-06-14T03:22:39;23.79;36.86
60242;SHT30;46103;52.076;113.488;2023-06-14T03:25:43;24.11;35.37
60242;SHT30;46103;52.076;113.488;2023-06-14T03:28:48;24.33;34.96
60242;SHT30;46103;52.076;113.488;2023-06-14T03:31:59;24.49;34.64
60242;SHT30;46103;52.076;113.488;2023-06-14T03:35:10;24.37;34.85
60242;SHT30;46103;52.076;113.488;2023-06-14T03:38:22;24.39;35.40
60242;SHT30;46103;52.076;113.488;2023-06-14T03:41:26;24.60;35.06
60242;SHT30;46103;52.076;113.488;2023-06-14T03:44:31;24.78;34.48
60242;SHT30;46103;52.076;113.488;2023-06-14T03:47:36;24.97;33.72
60242;SHT30;46103;52.076;113.488;2023-06-14T03:50:41;25.01;33.77
60242;SHT30;46103;52.076;113.488;2023-06-14T03:53:46;25.11;34.15
60242;SHT30;46103;52.076;113.488;2023-06-14T03:57:11;25.25;33.24
60242;SHT30;46103;52.076;113.488;2023-06-14T04:00:17;25.28;32.97
60242;SHT30;46103;52.076;113.488;2023-06-14T04:03:22;25.56;32.51
60242;SHT30;46103;52.076;113.488;2023-06-14T04:06:29;25.86;32.12
60242;SHT30;46103;52.076;113.488;2023-06-14T04:09:39;26.21;31.73
60242;SHT30;46103;52.076;113.488;2023-06-14T04:12:43;26.49;31.22
60242;SHT30;46103;52.076;113.488;2023-06-14T04:15:47;26.79;30.79
60242;SHT30;46103;52.076;113.488;2023-06-14T04:18:57;27.02;30.22
60242;SHT30;46103;52.076;113.488;2023-06-14T04:22:03;27.27;30.48
60242;SHT30;46103;52.076;113.488;2023-06-14T04:25:11;27.29;30.21
60242;SHT30;46103;52.076;113.488;2023-06-14T04:28:17;27.26;29.77
60242;SHT30;46103;52.076;113.488;2023-06-14T04:31:23;27.37;29.42
60242;SHT30;46103;52.076;113.488;2023-06-14T04:34:32;27.55;29.46
60242;SHT30;46103;52.076;113.488;2023-06-14T04:37:38;27.75;29.35
60242;SHT30;46103;52.076;113.488;2023-06-14T04:40:45;27.93;27.70
60242;SHT30;46103;52.076;113.488;2023-06-14T04:43:52;27.97;27.69
60242;SHT30;46103;52.076;113.488;2023-06-14T04:46:57;28.03;27.97
60242;SHT30;46103;52.076;113.488;2023-06-14T04:50:01;28.05;28.33
60242;SHT30;46103;52.076;113.488;2023-06-14T04:53:06;28.20;28.23
60242;SHT30;46103;52.076;113.488;2023-06-14T04:56:10;28.13;28.07
60242;SHT30;46103;52.076;113.488;2023-06-14T04:59:15;27.95;28.18
60242;SHT30;46103;52.076;113.488;2023-06-14T05:02:21;28.13;27.79
60242;SHT30;46103;52.076;113.488;2023-06-14T05:05:28;27.93;27.52
60242;SHT30;46103;52.076;113.488;2023-06-14T05:08:34;27.85;27.54
60242;SHT30;46103;52.076;113.488;2023-06-14T05:11:38;27.88;27.86
60242;SHT30;46103;52.076;113.488;2023-06-14T05:14:42;27.89;27.66
60242;SHT30;46103;52.076;113.488;2023-06-14T05:17:46;28.07;28.32
60242;SHT30;46103;52.076;113.488;2023-06-14T05:20:58;27.96;28.58
60242;SHT30;46103;52.076;113.488;2023-06-14T05:24:02;27.79;28.63
60242;SHT30;46103;52.076;113.488;2023-06-14T05:27:06;27.97;28.73
60242;SHT30;46103;52.076;113.488;2023-06-14T05:30:11;28.20;29.30
60242;SHT30;46103;52.076;113.488;2023-06-14T05:33:15;28.57;28.66
60242;SHT30;46103;52.076;113.488;2023-06-14T05:36:19;28.95;28.00
60242;SHT30;46103;52.076;113.488;2023-06-14T05:39:24;29.03;27.68
60242;SHT30;46103;52.076;113.488;2023-06-14T05:42:30;28.79;27.41
60242;SHT30;46103;52.076;113.488;2023-06-14T05:45:34;28.91;27.02
60242;SHT30;46103;52.076;113.488;2023-06-14T05:48:39;28.94;26.33
60242;SHT30;46103;52.076;113.488;2023-06-14T05:51:45;29.02;27.10
60242;SHT30;46103;52.076;113.488;2023-06-14T05:54:49;28.89;25.34
60242;SHT30;46103;52.076;113.488;2023-06-14T05:57:52;29.10;25.21
60242;SHT30;46103;52.076;113.488;2023-06-14T06:00:57;29.09;25.23
60242;SHT30;46103;52.076;113.488;2023-06-14T06:04:02;29.31;24.67
60242;SHT30;46103;52.076;113.488;2023-06-14T06:07:21;29.37;24.87
60242;SHT30;46103;52.076;113.488;2023-06-14T06:10:25;29.61;23.63
60242;SHT30;46103;52.076;113.488;2023-06-14T06:13:29;29.68;23.65
60242;SHT30;46103;52.076;113.488;2023-06-14T06:16:34;29.99;23.60
60242;SHT30;46103;52.076;113.488;2023-06-14T06:19:39;30.32;23.85
60242;SHT30;46103;52.076;113.488;2023-06-14T06:22:44;30.44;23.57
60242;SHT30;46103;52.076;113.488;2023-06-14T06:25:50;30.77;23.57
60242;SHT30;46103;52.076;113.488;2023-06-14T06:28:58;30.43;23.80
60242;SHT30;46103;52.076;113.488;2023-06-14T06:32:04;30.73;23.80
60242;SHT30;46103;52.076;113.488;2023-06-14T06:35:16;31.31;23.34
60242;SHT30;46103;52.076;113.488;2023-06-14T06:38:22;31.76;22.95
60242;SHT30;46103;52.076;113.488;2023-06-14T06:41:28;31.84;22.79
60242;SHT30;46103;52.076;113.488;2023-06-14T06:44:32;31.94;23.23
60242;SHT30;46103;52.076;113.488;2023-06-14T06:47:38;32.56;22.58
60242;SHT30;46103;52.076;113.488;2023-06-14T06:50:49;32.84;22.24
60242;SHT30;46103;52.076;113.488;2023-06-14T06:53:58;33.54;21.63
60242;SHT30;46103;52.076;113.488;2023-06-14T06:57:09;34.40;20.88
60242;SHT30;46103;52.076;113.488;2023-06-14T07:00:19;35.42;20.06
60242;SHT30;46103;52.076;113.488;2023-06-14T07:03:31;35.76;19.97
60242;SHT30;46103;52.076;113.488;2023-06-14T07:06:41;34.74;20.42
60242;SHT30;46103;52.076;113.488;2023-06-14T07:09:51;34.26;21.05
60242;SHT30;46103;52.076;113.488;2023-06-14T07:12:59;33.48;21.72
60242;SHT30;46103;52.076;113.488;2023-06-14T07:16:08;32.17;22.94
60242;SHT30;46103;52.076;113.488;2023-06-14T07:19:17;30.84;24.22
60242;SHT30;46103;52.076;113.488;2023-06-14T07:22:26;30.15;25.22
60242;SHT30;46103;52.076;113.488;2023-06-14T07:25:37;29.95;25.58
60242;SHT30;46103;52.076;113.488;2023-06-14T07:28:48;29.78;25.84
60242;SHT30;46103;52.076;113.488;2023-06-14T07:32:00;29.03;26.75
60242;SHT30;46103;52.076;113.488;2023-06-14T07:35:08;28.36;27.41
60242;SHT30;46103;52.076;113.488;2023-06-14T07:38:16;28.20;27.60
60242;SHT30;46103;52.076;113.488;2023-06-14T07:41:30;29.85;26.26
60242;SHT30;46103;52.076;113.488;2023-06-14T07:44:39;31.10;24.89
60242;SHT30;46103;52.076;113.488;2023-06-14T07:47:49;31.16;24.61
60242;SHT30;46103;52.076;113.488;2023-06-14T07:50:58;30.78;25.31
60242;SHT30;46103;52.076;113.488;2023-06-14T07:54:10;30.20;26.10
60242;SHT30;46103;52.076;113.488;2023-06-14T07:57:18;29.29;26.74
60242;SHT30;46103;52.076;113.488;2023-06-14T08:00:28;28.51;27.93
60242;SHT30;46103;52.076;113.488;2023-06-14T08:03:36;27.68;28.92
60242;SHT30;46103;52.076;113.488;2023-06-14T08:06:45;27.44;29.43
60242;SHT30;46103;52.076;113.488;2023-06-14T08:09:54;27.03;30.14
60242;SHT30;46103;52.076;113.488;2023-06-14T08:13:02;26.97;30.56
60242;SHT30;46103;52.076;113.488;2023-06-14T08:16:13;27.11;30.31
60242;SHT30;46103;52.076;113.488;2023-06-14T08:19:22;26.90;30.11
60242;SHT30;46103;52.076;113.488;2023-06-14T08:22:29;26.69;30.38
60242;SHT30;46103;52.076;113.488;2023-06-14T08:25:39;26.71;30.50
60242;SHT30;46103;52.076;113.488;2023-06-14T08:28:46;27.07;30.03
60242;SHT30;46103;52.076;113.488;2023-06-14T08:31:53;30.12;26.73
60242;SHT30;46103;52.076;113.488;2023-06-14T08:35:00;32.36;24.28
60242;SHT30;46103;52.076;113.488;2023-06-14T08:38:10;34.65;22.19
60242;SHT30;46103;52.076;113.488;2023-06-14T08:41:22;35.46;21.29
60242;SHT30;46103;52.076;113.488;2023-06-14T08:44:30;36.56;20.03
60242;SHT30;46103;52.076;113.488;2023-06-14T08:47:39;37.01;19.63
60242;SHT30;46103;52.076;113.488;2023-06-14T08:50:48;35.23;20.80
60242;SHT30;46103;52.076;113.488;2023-06-14T08:54:00;33.66;22.18
60242;SHT30;46103;52.076;113.488;2023-06-14T08:57:18;32.49;23.31
60242;SHT30;46103;52.076;113.488;2023-06-14T09:00:29;31.87;23.98
60242;SHT30;46103;52.076;113.488;2023-06-14T09:03:40;32.29;23.30
60242;SHT30;46103;52.076;113.488;2023-06-14T09:06:48;33.43;22.51
60242;SHT30;46103;52.076;113.488;2023-06-14T09:10:16;35.11;21.26
60242;SHT30;46103;52.076;113.488;2023-06-14T09:13:26;34.56;21.90
60242;SHT30;46103;52.076;113.488;2023-06-14T09:16:36;35.63;20.95
60242;SHT30;46103;52.076;113.488;2023-06-14T09:19:45;35.97;20.73
60242;SHT30;46103;52.076;113.488;2023-06-14T09:22:54;35.85;20.70
60242;SHT30;46103;52.076;113.488;2023-06-14T09:26:15;36.36;20.27
60242;SHT30;46103;52.076;113.488;2023-06-14T09:29:24;37.65;19.38
60242;SHT30;46103;52.076;113.488;2023-06-14T09:32:38;37.25;19.28
60242;SHT30;46103;52.076;113.488;2023-06-14T09:35:51;35.64;20.39
60242;SHT30;46103;52.076;113.488;2023-06-14T09:39:03;34.37;20.97
60242;SHT30;46103;52.076;113.488;2023-06-14T09:42:19;33.18;22.07
60242;SHT30;46103;52.076;113.488;2023-06-14T09:45:28;32.49;22.53
60242;SHT30;46103;52.076;113.488;2023-06-14T09:48:39;31.10;27.69
60242;SHT30;46103;52.076;113.488;2023-06-14T09:51:51;29.40;29.87
60242;SHT30;46103;52.076;113.488;2023-06-14T09:54:59;27.82;32.24
60242;SHT30;46103;52.076;113.488;2023-06-14T09:58:08;26.86;34.06
60242;SHT30;46103;52.076;113.488;2023-06-14T10:01:21;26.02;35.47
60242;SHT30;46103;52.076;113.488;2023-06-14T10:04:31;25.32;36.81
60242;SHT30;46103;52.076;113.488;2023-06-14T10:10:56;24.76;37.38
60242;SHT30;46103;52.076;113.488;2023-06-14T10:14:08;24.86;37.46
60242;SHT30;46103;52.076;113.488;2023-06-14T10:21:26;23.87;39.71
60242;SHT30;46103;52.076;113.488;2023-06-14T10:24:43;23.71;40.10
60242;SHT30;46103;52.076;113.488;2023-06-14T10:28:18;23.91;39.51
60242;SHT30;46103;52.076;113.488;2023-06-14T10:31:42;23.97;39.04
60242;SHT30;46103;52.076;113.488;2023-06-14T10:35:08;24.11;38.53
60242;SHT30;46103;52.076;113.488;2023-06-14T10:38:30;24.26;38.83
60242;SHT30;46103;52.076;113.488;2023-06-14T10:41:39;23.94;38.71
60242;SHT30;46103;52.076;113.488;2023-06-14T10:44:50;23.84;38.80
60242;SHT30;46103;52.076;113.488;2023-06-14T10:47:57;23.68;39.31
60242;SHT30;46103;52.076;113.488;2023-06-14T10:51:19;23.85;39.03
60242;SHT30;46103;52.076;113.488;2023-06-14T10:54:28;24.00;37.08
60242;SHT30;46103;52.076;113.488;2023-06-14T10:57:46;23.95;38.07
60242;SHT30;46103;52.076;113.488;2023-06-14T11:00:58;23.95;38.40
60242;SHT30;46103;52.076;113.488;2023-06-14T11:04:10;24.11;36.70
60242;SHT30;46103;52.076;113.488;2023-06-14T11:10:59;24.05;35.39
60242;SHT30;46103;52.076;113.488;2023-06-14T11:14:08;23.89;35.62
60242;SHT30;46103;52.076;113.488;2023-06-14T11:17:19;23.70;35.98
60242;SHT30;46103;52.076;113.488;2023-06-14T11:20:27;23.51;36.41
60242;SHT30;46103;52.076;113.488;2023-06-14T11:23:38;23.29;36.97
60242;SHT30;46103;52.076;113.488;2023-06-14T11:26:46;22.99;38.10
60242;SHT30;46103;52.076;113.488;2023-06-14T11:29:52;22.81;38.84
60242;SHT30;46103;52.076;113.488;2023-06-14T11:32:57;23.05;38.71
60242;SHT30;46103;52.076;113.488;2023-06-14T11:36:06;22.94;39.05
60242;SHT30;46103;52.076;113.488;2023-06-14T11:39:15;22.71;39.65
60242;SHT30;46103;52.076;113.488;2023-06-14T11:42:19;22.54;40.17
60242;SHT30;46103;52.076;113.488;2023-06-14T11:45:23;22.43;40.54
60242;SHT30;46103;52.076;113.488;2023-06-14T11:48:42;22.34;40.92
60242;SHT30;46103;52.076;113.488;2023-06-14T11:51:47;22.21;41.14
60242;SHT30;46103;52.076;113.488;2023-06-14T11:54:51;22.10;41.48
60242;SHT30;46103;52.076;113.488;2023-06-14T11:57:56;21.77;43.93
60242;SHT30;46103;52.076;113.488;2023-06-14T12:01:03;21.52;44.95
60242;SHT30;46103;52.076;113.488;2023-06-14T12:04:09;21.40;45.24
60242;SHT30;46103;52.076;113.488;2023-06-14T12:07:14;21.31;45.61
60242;SHT30;46103;52.076;113.488;2023-06-14T12:10:23;21.13;46.12
60242;SHT30;46103;52.076;113.488;2023-06-14T12:13:26;20.83;46.81
60242;SHT30;46103;52.076;113.488;2023-06-14T12:16:37;20.82;47.04
60242;SHT30;46103;52.076;113.488;2023-06-14T12:19:44;20.72;47.61
60242;SHT30;46103;52.076;113.488;2023-06-14T12:22:54;20.56;47.75
60242;SHT30;46103;52.076;113.488;2023-06-14T12:26:00;20.96;46.97
60242;SHT30;46103;52.076;113.488;2023-06-14T12:29:05;21.89;44.91
60242;SHT30;46103;52.076;113.488;2023-06-14T12:32:10;22.24;43.89
60242;SHT30;46103;52.076;113.488;2023-06-14T12:35:15;21.99;44.20
60242;SHT30;46103;52.076;113.488;2023-06-14T12:38:22;21.54;45.21
60242;SHT30;46103;52.076;113.488;2023-06-14T12:41:39;21.13;46.00
60242;SHT30;46103;52.076;113.488;2023-06-14T12:44:46;20.93;46.52
60242;SHT30;46103;52.076;113.488;2023-06-14T12:47:50;20.87;46.69
60242;SHT30;46103;52.076;113.488;2023-06-14T12:50:56;20.68;47.12
60242;SHT30;46103;52.076;113.488;2023-06-14T12:54:00;20.55;47.52
60242;SHT30;46103;52.076;113.488;2023-06-14T12:57:05;20.32;47.85
60242;SHT30;46103;52.076;113.488;2023-06-14T13:00:10;20.20;48.19
60242;SHT30;46103;52.076;113.488;2023-06-14T13:03:14;20.17;48.30
60242;SHT30;46103;52.076;113.488;2023-06-14T13:06:21;20.07;48.49
60242;SHT30;46103;52.076;113.488;2023-06-14T13:09:29;20.00;48.75
60242;SHT30;46103;52.076;113.488;2023-06-14T13:12:32;19.92;49.04
60242;SHT30;46103;52.076;113.488;2023-06-14T13:15:36;19.90;48.97
60242;SHT30;46103;52.076;113.488;2023-06-14T13:18:39;19.83;49.26
60242;SHT30;46103;52.076;113.488;2023-06-14T13:21:45;19.86;49.25
60242;SHT30;46103;52.076;113.488;2023-06-14T13:24:57;19.86;49.20
60242;SHT30;46103;52.076;113.488;2023-06-14T13:28:17;19.83;49.22
60242;SHT30;46103;52.076;113.488;2023-06-14T13:31:21;19.87;49.17
60242;SHT30;46103;52.076;113.488;2023-06-14T13:39:25;19.97;48.93
60242;SHT30;46103;52.076;113.488;2023-06-14T13:42:42;19.98;49.02
60242;SHT30;46103;52.076;113.488;2023-06-14T13:45:46;20.00;49.02
60242;SHT30;46103;52.076;113.488;2023-06-14T13:48:51;19.94;49.06
60242;SHT30;46103;52.076;113.488;2023-06-14T13:51:55;19.98;49.11
60242;SHT30;46103;52.076;113.488;2023-06-14T13:54:58;19.96;48.97
60242;SHT30;46103;52.076;113.488;2023-06-14T13:58:03;19.90;49.28
60242;SHT30;46103;52.076;113.488;2023-06-14T14:01:08;19.92;49.27
60242;SHT30;46103;52.076;113.488;2023-06-14T14:04:13;19.86;49.49
60242;SHT30;46103;52.076;113.488;2023-06-14T14:07:19;19.75;49.76
60242;SHT30;46103;52.076;113.488;2023-06-14T14:10:24;19.77;49.72
60242;SHT30;46103;52.076;113.488;2023-06-14T14:13:33;19.72;49.90
60242;SHT30;46103;52.076;113.488;2023-06-14T14:16:39;19.70;50.03
60242;SHT30;46103;52.076;113.488;2023-06-14T14:19:43;19.72;50.03
60242;SHT30;46103;52.076;113.488;2023-06-14T14:23:12;19.70;50.14
60242;SHT30;46103;52.076;113.488;2023-06-14T14:26:44;19.59;50.29
60242;SHT30;46103;52.076;113.488;2023-06-14T14:29:53;19.56;50.41
60242;SHT30;46103;52.076;113.488;2023-06-14T14:32:58;19.49;50.65
60242;SHT30;46103;52.076;113.488;2023-06-14T14:36:04;19.41;50.82
60242;SHT30;46103;52.076;113.488;2023-06-14T14:39:11;19.35;51.04
60242;SHT30;46103;52.076;113.488;2023-06-14T14:42:29;19.28;51.32
60242;SHT30;46103;52.076;113.488;2023-06-14T14:45:46;19.34;51.24
60242;SHT30;46103;52.076;113.488;2023-06-14T14:48:50;19.42;51.05
60242;SHT30;46103;52.076;113.488;2023-06-14T14:51:55;19.41;51.00
60242;SHT30;46103;52.076;113.488;2023-06-14T14:55:16;19.39;51.13
60242;SHT30;46103;52.076;113.488;2023-06-14T14:58:21;19.45;50.95
60242;SHT30;46103;52.076;113.488;2023-06-14T15:01:26;19.49;50.97
60242;SHT30;46103;52.076;113.488;2023-06-14T15:04:34;19.54;50.84
60242;SHT30;46103;52.076;113.488;2023-06-14T15:07:38;19.58;50.80
60242;SHT30;46103;52.076;113.488;2023-06-14T15:10:57;19.46;51.08
60242;SHT30;46103;52.076;113.488;2023-06-14T15:14:06;19.38;51.30
60242;SHT30;46103;52.076;113.488;2023-06-14T15:20:31;19.42;51.25
60242;SHT30;46103;52.076;113.488;2023-06-14T15:23:35;19.38;51.73
60242;SHT30;46103;52.076;113.488;2023-06-14T15:26:50;19.28;52.05
60242;SHT30;46103;52.076;113.488;2023-06-14T15:29:54;19.18;52.65
60242;SHT30;46103;52.076;113.488;2023-06-14T15:32:59;19.14;52.82
60242;SHT30;46103;52.076;113.488;2023-06-14T15:36:05;18.96;53.23
60242;SHT30;46103;52.076;113.488;2023-06-14T15:39:10;18.91;53.48
60242;SHT30;46103;52.076;113.488;2023-06-14T15:42:14;19.07;53.17
60242;SHT30;46103;52.076;113.488;2023-06-14T15:45:19;19.07;53.14
60242;SHT30;46103;52.076;113.488;2023-06-14T15:48:24;19.03;53.46
60242;SHT30;46103;52.076;113.488;2023-06-14T15:51:29;19.03;53.12
60242;SHT30;46103;52.076;113.488;2023-06-14T15:54:33;19.01;52.87
60242;SHT30;46103;52.076;113.488;2023-06-14T15:57:39;19.06;53.08
60242;SHT30;46103;52.076;113.488;2023-06-14T16:00:47;19.00;53.46
60242;SHT30;46103;52.076;113.488;2023-06-14T16:03:51;18.73;54.50
60242;SHT30;46103;52.076;113.488;2023-06-14T16:06:55;18.56;55.52
60242;SHT30;46103;52.076;113.488;2023-06-14T16:09:59;18.42;56.23
60242;SHT30;46103;52.076;113.488;2023-06-14T16:13:04;18.21;56.91
60242;SHT30;46103;52.076;113.488;2023-06-14T16:16:09;18.12;57.14
60242;SHT30;46103;52.076;113.488;2023-06-14T16:19:13;18.16;57.05
60242;SHT30;46103;52.076;113.488;2023-06-14T16:22:17;18.26;56.75
60242;SHT30;46103;52.076;113.488;2023-06-14T16:25:22;18.32;56.48
60242;SHT30;46103;52.076;113.488;2023-06-14T16:28:30;18.34;56.28
60242;SHT30;46103;52.076;113.488;2023-06-14T16:31:36;18.34;56.23
60242;SHT30;46103;52.076;113.488;2023-06-14T16:34:40;18.28;56.32
60242;SHT30;46103;52.076;113.488;2023-06-14T16:37:48;18.24;56.37
60242;SHT30;46103;52.076;113.488;2023-06-14T16:40:52;18.24;56.38
60242;SHT30;46103;52.076;113.488;2023-06-14T16:43:56;18.22;56.48
60242;SHT30;46103;52.076;113.488;2023-06-14T16:47:04;18.18;56.63
60242;SHT30;46103;52.076;113.488;2023-06-14T16:50:10;18.18;56.65
60242;SHT30;46103;52.076;113.488;2023-06-14T16:53:14;18.15;56.77
60242;SHT30;46103;52.076;113.488;2023-06-14T16:56:20;18.21;56.76
60242;SHT30;46103;52.076;113.488;2023-06-14T16:59:24;18.25;56.70
60242;SHT30;46103;52.076;113.488;2023-06-14T17:02:29;18.25;56.64
60242;SHT30;46103;52.076;113.488;2023-06-14T17:05:33;18.26;56.38
60242;SHT30;46103;52.076;113.488;2023-06-14T17:08:38;18.25;56.64
60242;SHT30;46103;52.076;113.488;2023-06-14T17:11:43;18.24;56.69
60242;SHT30;46103;52.076;113.488;2023-06-14T17:14:48;18.22;56.77
60242;SHT30;46103;52.076;113.488;2023-06-14T17:17:54;18.21;56.42
60242;SHT30;46103;52.076;113.488;2023-06-14T17:20:58;18.21;56.75
60242;SHT30;46103;52.076;113.488;2023-06-14T17:24:03;18.12;56.63
60242;SHT30;46103;52.076;113.488;2023-06-14T17:27:26;17.91;57.26
60242;SHT30;46103;52.076;113.488;2023-06-14T17:30:30;17.77;57.76
60242;SHT30;46103;52.076;113.488;2023-06-14T17:33:35;17.87;57.64
60242;SHT30;46103;52.076;113.488;2023-06-14T17:36:39;17.86;57.57
60242;SHT30;46103;52.076;113.488;2023-06-14T17:39:43;17.71;58.79
60242;SHT30;46103;52.076;113.488;2023-06-14T17:42:47;17.57;58.96
60242;SHT30;46103;52.076;113.488;2023-06-14T17:45:51;17.65;58.49
60242;SHT30;46103;52.076;113.488;2023-06-14T17:48:58;17.66;58.38
60242;SHT30;46103;52.076;113.488;2023-06-14T17:52:03;17.69;58.29
60242;SHT30;46103;52.076;113.488;2023-06-14T17:55:07;17.70;58.14
60242;SHT30;46103;52.076;113.488;2023-06-14T17:58:12;17.74;57.86
60242;SHT30;46103;52.076;113.488;2023-06-14T18:01:16;17.67;58.13
60242;SHT30;46103;52.076;113.488;2023-06-14T18:04:23;17.65;58.37
60242;SHT30;46103;52.076;113.488;2023-06-14T18:07:27;17.63;59.10
60242;SHT30;46103;52.076;113.488;2023-06-14T18:10:32;17.50;60.58
60242;SHT30;46103;52.076;113.488;2023-06-14T18:13:35;17.40;61.01
60242;SHT30;46103;52.076;113.488;2023-06-14T18:16:41;17.22;61.26
60242;SHT30;46103;52.076;113.488;2023-06-14T18:19:45;17.16;61.50
60242;SHT30;46103;52.076;113.488;2023-06-14T18:22:49;17.07;61.65
60242;SHT30;46103;52.076;113.488;2023-06-14T18:25:56;16.92;61.52
60242;SHT30;46103;52.076;113.488;2023-06-14T18:29:01;16.78;62.11
60242;SHT30;46103;52.076;113.488;2023-06-14T18:32:05;16.66;62.49
60242;SHT30;46103;52.076;113.488;2023-06-14T18:35:10;16.57;62.47
60242;SHT30;46103;52.076;113.488;2023-06-14T18:38:14;16.28;62.93
60242;SHT30;46103;52.076;113.488;2023-06-14T18:41:18;15.99;63.38
60242;SHT30;46103;52.076;113.488;2023-06-14T18:44:22;15.87;63.65
60242;SHT30;46103;52.076;113.488;2023-06-14T18:47:27;15.87;63.24
60242;SHT30;46103;52.076;113.488;2023-06-14T18:50:31;15.88;63.59
60242;SHT30;46103;52.076;113.488;2023-06-14T18:53:35;15.97;62.68
60242;SHT30;46103;52.076;113.488;2023-06-14T18:56:39;15.98;62.59
60242;SHT30;46103;52.076;113.488;2023-06-14T18:59:43;16.04;63.22
60242;SHT30;46103;52.076;113.488;2023-06-14T19:02:46;15.99;62.33
60242;SHT30;46103;52.076;113.488;2023-06-14T19:05:51;15.90;62.58
60242;SHT30;46103;52.076;113.488;2023-06-14T19:08:55;15.82;62.45
60242;SHT30;46103;52.076;113.488;2023-06-14T19:11:58;15.77;62.87
60242;SHT30;46103;52.076;113.488;2023-06-14T19:15:02;15.70;63.03
60242;SHT30;46103;52.076;113.488;2023-06-14T19:18:08;15.60;63.18
60242;SHT30;46103;52.076;113.488;2023-06-14T19:21:14;15.49;62.99
60242;SHT30;46103;52.076;113.488;2023-06-14T19:24:19;15.39;63.21
60242;SHT30;46103;52.076;113.488;2023-06-14T19:27:23;15.26;63.80
60242;SHT30;46103;52.076;113.488;2023-06-14T19:30:27;15.13;64.20
60242;SHT30;46103;52.076;113.488;2023-06-14T19:33:32;15.05;64.30
60242;SHT30;46103;52.076;113.488;2023-06-14T19:36:36;14.92;64.43
60242;SHT30;46103;52.076;113.488;2023-06-14T19:39:40;14.81;64.74
60242;SHT30;46103;52.076;113.488;2023-06-14T19:42:47;14.64;64.98
60242;SHT30;46103;52.076;113.488;2023-06-14T19:45:50;14.48;65.39
60242;SHT30;46103;52.076;113.488;2023-06-14T19:48:55;14.34;65.72